sensor_id;sensor_type;location;lat;lon;timestamp;temperature;humidity
26541;DHT22;14206;50.202;10.948;2023-09-12T00:02:15;17.30;90.50
26541;DHT22;14206;50.202;10.948;2023-09-12T00:04:41;17.30;90.70
26541;DHT22;14206;50.202;10.948;2023-09-12T00:07:08;17.30;90.50
26541;DHT22;14206;50.202;10.948;2023-09-12T00:09:35;17.20;90.60
26541;DHT22;14206;50.202;10.948;2023-09-12T00:12:02;17.20;90.70
26541;DHT22;14206;50.202;10.948;2023-09-12T00:14:29;17.20;90.40
26541;DHT22;14206;50.202;10.948;2023-09-12T00:16:56;17.20;90.70
26541;DHT22;14206;50.202;10.948;2023-09-12T00:19:23;17.20;90.50
26541;DHT22;14206;50.202;10.948;2023-09-12T00:21:50;17.10;90.10
26541;DHT22;14206;50.202;10.948;2023-09-12T00:24:17;17.10;90.10
26541;DHT22;14206;50.202;10.948;2023-09-12T00:26:44;17.10;90.20
26541;DHT22;14206;50.202;10.948;2023-09-12T00:29:11;17.00;90.30
26541;DHT22;14206;50.202;10.948;2023-09-12T00:31:38;17.00;90.50
26541;DHT22;14206;50.202;10.948;2023-09-12T00:34:05;17.00;90.80
26541;DHT22;14206;50.202;10.948;2023-09-12T00:36:33;16.90;90.90
26541;DHT22;14206;50.202;10.948;2023-09-12T00:39:00;16.90;90.90
26541;DHT22;14206;50.202;10.948;2023-09-12T00:41:27;16.90;90.80
26541;DHT22;14206;50.202;10.948;2023-09-12T00:43:54;16.90;91.10
26541;DHT22;14206;50.202;10.948;2023-09-12T00:46:22;16.80;91.40
26541;DHT22;14206;50.202;10.948;2023-09-12T00:48:50;16.80;91.30
26541;DHT22;14206;50.202;10.948;2023-09-12T00:51:25;16.80;91.10
26541;DHT22;14206;50.202;10.948;2023-09-12T00:53:53;16.80;91.20
26541;DHT22;14206;50.202;10.948;2023-09-12T00:56:21;16.80;92.20
26541;DHT22;14206;50.202;10.948;2023-09-12T00:58:48;16.80;91.30
26541;DHT22;14206;50.202;10.948;2023-09-12T01:01:21;16.80;91.50
26541;DHT22;14206;50.202;10.948;2023-09-12T01:03:48;16.70;91.20
26541;DHT22;14206;50.202;10.948;2023-09-12T01:06:19;16.70;91.50
26541;DHT22;14206;50.202;10.948;2023-09-12T01:08:47;16.70;91.50
26541;DHT22;14206;50.202;10.948;2023-09-12T01:11:14;16.60;91.50
26541;DHT22;14206;50.202;10.948;2023-09-12T01:13:41;16.60;91.80
26541;DHT22;14206;50.202;10.948;2023-09-12T01:16:08;16.60;91.70
26541;DHT22;14206;50.202;10.948;2023-09-12T01:18:36;16.60;92.00
26541;DHT22;14206;50.202;10.948;2023-09-12T01:26:56;16.60;92.70
26541;DHT22;14206;50.202;10.948;2023-09-12T01:29:26;16.60;92.40
26541;DHT22;14206;50.202;10.948;2023-09-12T01:31:54;16.60;92.50
26541;DHT22;14206;50.202;10.948;2023-09-12T01:34:22;16.50;92.20
26541;DHT22;14206;50.202;10.948;2023-09-12T01:36:49;16.50;92.50
26541;DHT22;14206;50.202;10.948;2023-09-12T01:39:15;16.50;92.50
26541;DHT22;14206;50.202;10.948;2023-09-12T01:41:44;16.40;92.40
26541;DHT22;14206;50.202;10.948;2023-09-12T01:44:14;16.40;92.80
26541;DHT22;14206;50.202;10.948;2023-09-12T01:46:42;16.40;92.80
26541;DHT22;14206;50.202;10.948;2023-09-12T01:49:10;16.40;92.30
26541;DHT22;14206;50.202;10.948;2023-09-12T01:51:37;16.30;92.30
26541;DHT22;14206;50.202;10.948;2023-09-12T01:54:07;16.30;92.50
26541;DHT22;14206;50.202;10.948;2023-09-12T01:56:34;16.30;92.60
26541;DHT22;14206;50.202;10.948;2023-09-12T01:59:09;16.30;92.70
26541;DHT22;14206;50.202;10.948;2023-09-12T02:01:36;16.30;92.70
26541;DHT22;14206;50.202;10.948;2023-09-12T02:04:03;16.30;92.90
26541;DHT22;14206;50.202;10.948;2023-09-12T02:06:35;16.30;93.10
26541;DHT22;14206;50.202;10.948;2023-09-12T02:09:02;16.30;93.20
26541;DHT22;14206;50.202;10.948;2023-09-12T02:11:29;16.30;93.40
26541;DHT22;14206;50.202;10.948;2023-09-12T02:13:56;16.30;93.00
26541;DHT22;14206;50.202;10.948;2023-09-12T02:16:23;16.20;93.00
26541;DHT22;14206;50.202;10.948;2023-09-12T02:18:50;16.20;92.80
26541;DHT22;14206;50.202;10.948;2023-09-12T02:21:17;16.20;92.70
26541;DHT22;14206;50.202;10.948;2023-09-12T02:23:44;16.20;92.80
26541;DHT22;14206;50.202;10.948;2023-09-12T02:26:11;16.20;93.30
26541;DHT22;14206;50.202;10.948;2023-09-12T02:28:39;16.10;93.50
26541;DHT22;14206;50.202;10.948;2023-09-12T02:31:10;16.10;93.40
26541;DHT22;14206;50.202;10.948;2023-09-12T02:33:39;16.10;93.70
26541;DHT22;14206;50.202;10.948;2023-09-12T02:36:06;16.10;93.80
26541;DHT22;14206;50.202;10.948;2023-09-12T02:38:33;16.10;93.50
26541;DHT22;14206;50.202;10.948;2023-09-12T02:41:00;16.10;93.30
26541;DHT22;14206;50.202;10.948;2023-09-12T02:43:29;16.10;93.20
26541;DHT22;14206;50.202;10.948;2023-09-12T02:45:56;16.00;93.10
26541;DHT22;14206;50.202;10.948;2023-09-12T02:48:24;16.00;93.00
26541;DHT22;14206;50.202;10.948;2023-09-12T02:50:51;16.00;93.10
26541;DHT22;14206;50.202;10.948;2023-09-12T02:53:18;15.90;93.60
26541;DHT22;14206;50.202;10.948;2023-09-12T02:55:45;15.90;93.80
26541;DHT22;14206;50.202;10.948;2023-09-12T02:58:13;15.90;94.20
26541;DHT22;14206;50.202;10.948;2023-09-12T03:00:41;15.80;94.40
26541;DHT22;14206;50.202;10.948;2023-09-12T03:03:10;15.80;94.30
26541;DHT22;14206;50.202;10.948;2023-09-12T03:05:38;15.80;94.40
26541;DHT22;14206;50.202;10.948;2023-09-12T03:08:06;15.80;94.40
26541;DHT22;14206;50.202;10.948;2023-09-12T03:10:34;15.70;94.80
26541;DHT22;14206;50.202;10.948;2023-09-12T03:13:12;15.70;95.00
26541;DHT22;14206;50.202;10.948;2023-09-12T03:15:40;15.70;95.20
26541;DHT22;14206;50.202;10.948;2023-09-12T03:18:10;15.60;94.70
26541;DHT22;14206;50.202;10.948;2023-09-12T03:20:38;15.60;95.00
26541;DHT22;14206;50.202;10.948;2023-09-12T03:23:06;15.60;94.90
26541;DHT22;14206;50.202;10.948;2023-09-12T03:25:37;15.60;94.90
26541;DHT22;14206;50.202;10.948;2023-09-12T03:28:06;15.50;95.30
26541;DHT22;14206;50.202;10.948;2023-09-12T03:30:33;15.50;95.40
26541;DHT22;14206;50.202;10.948;2023-09-12T03:33:01;15.50;95.20
26541;DHT22;14206;50.202;10.948;2023-09-12T03:35:32;15.50;95.70
26541;DHT22;14206;50.202;10.948;2023-09-12T03:37:59;15.50;96.00
26541;DHT22;14206;50.202;10.948;2023-09-12T03:40:31;15.50;95.60
26541;DHT22;14206;50.202;10.948;2023-09-12T03:42:58;15.50;95.30
26541;DHT22;14206;50.202;10.948;2023-09-12T03:45:25;15.50;95.60
26541;DHT22;14206;50.202;10.948;2023-09-12T03:47:52;15.50;95.80
26541;DHT22;14206;50.202;10.948;2023-09-12T03:50:19;15.50;96.00
26541;DHT22;14206;50.202;10.948;2023-09-12T03:52:46;15.50;95.80
26541;DHT22;14206;50.202;10.948;2023-09-12T03:55:13;15.50;95.60
26541;DHT22;14206;50.202;10.948;2023-09-12T03:57:40;15.50;95.60
26541;DHT22;14206;50.202;10.948;2023-09-12T04:00:08;15.50;95.50
26541;DHT22;14206;50.202;10.948;2023-09-12T04:02:45;15.60;95.40
26541;DHT22;14206;50.202;10.948;2023-09-12T04:05:14;15.60;95.50
26541;DHT22;14206;50.202;10.948;2023-09-12T04:07:41;15.60;95.30
26541;DHT22;14206;50.202;10.948;2023-09-12T04:10:08;15.60;95.50
26541;DHT22;14206;50.202;10.948;2023-09-12T04:12:35;15.60;95.30
26541;DHT22;14206;50.202;10.948;2023-09-12T04:15:02;15.60;95.20
26541;DHT22;14206;50.202;10.948;2023-09-12T04:17:30;15.60;95.00
26541;DHT22;14206;50.202;10.948;2023-09-12T04:19:57;15.60;95.00
26541;DHT22;14206;50.202;10.948;2023-09-12T04:22:24;15.60;94.80
26541;DHT22;14206;50.202;10.948;2023-09-12T04:24:51;15.60;95.10
26541;DHT22;14206;50.202;10.948;2023-09-12T04:27:18;15.60;95.10
26541;DHT22;14206;50.202;10.948;2023-09-12T04:29:45;15.60;95.30
26541;DHT22;14206;50.202;10.948;2023-09-12T04:32:13;15.60;95.20
26541;DHT22;14206;50.202;10.948;2023-09-12T04:34:42;15.60;95.30
26541;DHT22;14206;50.202;10.948;2023-09-12T04:37:10;15.60;95.10
26541;DHT22;14206;50.202;10.948;2023-09-12T04:39:37;15.60;95.10
26541;DHT22;14206;50.202;10.948;2023-09-12T04:42:04;15.60;95.40
26541;DHT22;14206;50.202;10.948;2023-09-12T04:44:35;15.60;95.30
26541;DHT22;14206;50.202;10.948;2023-09-12T04:47:03;15.60;95.10
26541;DHT22;14206;50.202;10.948;2023-09-12T04:49:30;15.60;95.20
26541;DHT22;14206;50.202;10.948;2023-09-12T04:51:57;15.70;95.30
26541;DHT22;14206;50.202;10.948;2023-09-12T04:54:24;15.60;95.00
26541;DHT22;14206;50.202;10.948;2023-09-12T04:56:51;15.60;95.00
26541;DHT22;14206;50.202;10.948;2023-09-12T04:59:18;15.60;95.50
26541;DHT22;14206;50.202;10.948;2023-09-12T05:01:45;15.60;95.40
26541;DHT22;14206;50.202;10.948;2023-09-12T05:04:12;15.60;95.80
26541;DHT22;14206;50.202;10.948;2023-09-12T05:06:39;15.60;95.90
26541;DHT22;14206;50.202;10.948;2023-09-12T05:09:06;15.60;95.60
26541;DHT22;14206;50.202;10.948;2023-09-12T05:11:35;15.70;95.30
26541;DHT22;14206;50.202;10.948;2023-09-12T05:14:02;15.80;95.30
26541;DHT22;14206;50.202;10.948;2023-09-12T05:16:30;15.80;95.60
26541;DHT22;14206;50.202;10.948;2023-09-12T05:18:57;15.90;95.10
26541;DHT22;14206;50.202;10.948;2023-09-12T05:21:24;15.90;95.10
26541;DHT22;14206;50.202;10.948;2023-09-12T05:23:51;15.90;95.10
26541;DHT22;14206;50.202;10.948;2023-09-12T05:26:18;16.00;95.20
26541;DHT22;14206;50.202;10.948;2023-09-12T05:28:45;16.10;95.00
26541;DHT22;14206;50.202;10.948;2023-09-12T05:31:12;16.20;95.00
26541;DHT22;14206;50.202;10.948;2023-09-12T05:33:42;16.30;95.20
26541;DHT22;14206;50.202;10.948;2023-09-12T05:36:09;16.40;94.80
26541;DHT22;14206;50.202;10.948;2023-09-12T05:38:36;16.50;95.00
26541;DHT22;14206;50.202;10.948;2023-09-12T05:41:03;16.50;94.70
26541;DHT22;14206;50.202;10.948;2023-09-12T05:43:30;16.60;94.60
26541;DHT22;14206;50.202;10.948;2023-09-12T05:45:57;16.70;94.60
26541;DHT22;14206;50.202;10.948;2023-09-12T05:48:24;16.70;94.40
26541;DHT22;14206;50.202;10.948;2023-09-12T05:50:51;16.80;94.20
26541;DHT22;14206;50.202;10.948;2023-09-12T05:53:21;16.90;94.70
26541;DHT22;14206;50.202;10.948;2023-09-12T05:55:48;17.00;94.30
26541;DHT22;14206;50.202;10.948;2023-09-12T05:58:15;17.10;94.00
26541;DHT22;14206;50.202;10.948;2023-09-12T06:00:42;17.10;94.50
26541;DHT22;14206;50.202;10.948;2023-09-12T06:03:10;17.10;94.60
26541;DHT22;14206;50.202;10.948;2023-09-12T06:05:37;17.10;94.60
26541;DHT22;14206;50.202;10.948;2023-09-12T06:08:04;17.20;94.40
26541;DHT22;14206;50.202;10.948;2023-09-12T06:10:31;17.30;94.60
26541;DHT22;14206;50.202;10.948;2023-09-12T06:12:58;17.40;94.50
26541;DHT22;14206;50.202;10.948;2023-09-12T06:15:25;17.50;94.40
26541;DHT22;14206;50.202;10.948;2023-09-12T06:17:52;17.60;94.40
26541;DHT22;14206;50.202;10.948;2023-09-12T06:20:20;17.70;94.10
26541;DHT22;14206;50.202;10.948;2023-09-12T06:22:48;17.80;93.60
26541;DHT22;14206;50.202;10.948;2023-09-12T06:25:16;17.90;93.50
26541;DHT22;14206;50.202;10.948;2023-09-12T06:27:42;18.00;93.10
26541;DHT22;14206;50.202;10.948;2023-09-12T06:30:10;18.10;92.60
26541;DHT22;14206;50.202;10.948;2023-09-12T06:32:37;18.20;92.30
26541;DHT22;14206;50.202;10.948;2023-09-12T06:35:05;18.30;91.90
26541;DHT22;14206;50.202;10.948;2023-09-12T06:37:32;18.40;91.70
26541;DHT22;14206;50.202;10.948;2023-09-12T06:39:59;18.50;91.50
26541;DHT22;14206;50.202;10.948;2023-09-12T06:42:26;18.60;91.30
26541;DHT22;14206;50.202;10.948;2023-09-12T06:44:53;18.70;91.10
26541;DHT22;14206;50.202;10.948;2023-09-12T06:47:20;18.80;91.10
26541;DHT22;14206;50.202;10.948;2023-09-12T06:49:47;18.90;90.30
26541;DHT22;14206;50.202;10.948;2023-09-12T06:52:21;19.10;90.70
26541;DHT22;14206;50.202;10.948;2023-09-12T06:54:48;19.20;89.70
26541;DHT22;14206;50.202;10.948;2023-09-12T06:57:15;19.30;90.00
26541;DHT22;14206;50.202;10.948;2023-09-12T06:59:42;19.40;89.30
26541;DHT22;14206;50.202;10.948;2023-09-12T07:02:09;19.60;89.00
26541;DHT22;14206;50.202;10.948;2023-09-12T07:04:38;19.80;88.40
26541;DHT22;14206;50.202;10.948;2023-09-12T07:07:05;19.90;88.00
26541;DHT22;14206;50.202;10.948;2023-09-12T07:09:32;20.00;88.20
26541;DHT22;14206;50.202;10.948;2023-09-12T07:12:00;20.20;87.90
26541;DHT22;14206;50.202;10.948;2023-09-12T07:14:27;20.30;87.70
26541;DHT22;14206;50.202;10.948;2023-09-12T07:16:54;20.40;86.90
26541;DHT22;14206;50.202;10.948;2023-09-12T07:19:21;20.60;86.60
26541;DHT22;14206;50.202;10.948;2023-09-12T07:21:48;20.70;86.40
26541;DHT22;14206;50.202;10.948;2023-09-12T07:24:15;20.80;86.20
26541;DHT22;14206;50.202;10.948;2023-09-12T07:26:42;21.00;85.60
26541;DHT22;14206;50.202;10.948;2023-09-12T07:29:09;21.10;85.60
26541;DHT22;14206;50.202;10.948;2023-09-12T07:31:36;21.20;85.90
26541;DHT22;14206;50.202;10.948;2023-09-12T07:34:03;21.30;85.00
26541;DHT22;14206;50.202;10.948;2023-09-12T07:36:35;21.50;84.70
26541;DHT22;14206;50.202;10.948;2023-09-12T07:39:03;21.70;84.20
26541;DHT22;14206;50.202;10.948;2023-09-12T07:41:30;22.10;83.90
26541;DHT22;14206;50.202;10.948;2023-09-12T07:43:58;22.90;81.50
26541;DHT22;14206;50.202;10.948;2023-09-12T07:46:26;23.80;78.90
26541;DHT22;14206;50.202;10.948;2023-09-12T07:48:53;24.90;75.80
26541;DHT22;14206;50.202;10.948;2023-09-12T07:51:20;26.10;74.50
26541;DHT22;14206;50.202;10.948;2023-09-12T07:53:52;27.00;71.40
26541;DHT22;14206;50.202;10.948;2023-09-12T07:56:19;28.00;69.50
26541;DHT22;14206;50.202;10.948;2023-09-12T07:58:46;29.00;68.70
26541;DHT22;14206;50.202;10.948;2023-09-12T08:01:13;29.90;66.50
26541;DHT22;14206;50.202;10.948;2023-09-12T08:03:41;30.90;65.00
26541;DHT22;14206;50.202;10.948;2023-09-12T08:06:09;31.80;62.50
26541;DHT22;14206;50.202;10.948;2023-09-12T08:08:36;32.80;60.30
26541;DHT22;14206;50.202;10.948;2023-09-12T08:11:03;33.50;57.80
26541;DHT22;14206;50.202;10.948;2023-09-12T08:13:31;34.20;57.80
26541;DHT22;14206;50.202;10.948;2023-09-12T08:15:58;35.00;55.50
26541;DHT22;14206;50.202;10.948;2023-09-12T08:18:30;35.80;53.90
26541;DHT22;14206;50.202;10.948;2023-09-12T08:20:58;36.40;52.40
26541;DHT22;14206;50.202;10.948;2023-09-12T08:23:25;36.90;52.20
26541;DHT22;14206;50.202;10.948;2023-09-12T08:25:52;37.20;50.70
26541;DHT22;14206;50.202;10.948;2023-09-12T08:28:19;37.70;50.80
26541;DHT22;14206;50.202;10.948;2023-09-12T08:30:46;38.20;49.20
26541;DHT22;14206;50.202;10.948;2023-09-12T08:33:13;38.50;48.70
26541;DHT22;14206;50.202;10.948;2023-09-12T08:35:40;38.80;47.90
26541;DHT22;14206;50.202;10.948;2023-09-12T08:38:07;39.30;48.10
26541;DHT22;14206;50.202;10.948;2023-09-12T08:40:35;39.60;46.50
26541;DHT22;14206;50.202;10.948;2023-09-12T08:43:02;39.70;47.00
26541;DHT22;14206;50.202;10.948;2023-09-12T08:45:33;39.90;46.60
26541;DHT22;14206;50.202;10.948;2023-09-12T08:48:03;39.70;46.10
26541;DHT22;14206;50.202;10.948;2023-09-12T08:50:31;39.10;45.60
26541;DHT22;14206;50.202;10.948;2023-09-12T08:53:00;38.20;46.70
26541;DHT22;14206;50.202;10.948;2023-09-12T08:55:35;37.60;48.20
26541;DHT22;14206;50.202;10.948;2023-09-12T08:58:04;37.10;48.10
26541;DHT22;14206;50.202;10.948;2023-09-12T09:00:32;36.50;49.30
26541;DHT22;14206;50.202;10.948;2023-09-12T09:03:00;36.00;49.50
26541;DHT22;14206;50.202;10.948;2023-09-12T09:05:28;35.60;49.90
26541;DHT22;14206;50.202;10.948;2023-09-12T09:07:56;35.30;50.90
26541;DHT22;14206;50.202;10.948;2023-09-12T09:10:24;35.40;51.80
26541;DHT22;14206;50.202;10.948;2023-09-12T09:13:12;35.30;51.50
26541;DHT22;14206;50.202;10.948;2023-09-12T09:15:39;35.70;51.60
26541;DHT22;14206;50.202;10.948;2023-09-12T09:18:09;36.50;51.40
26541;DHT22;14206;50.202;10.948;2023-09-12T09:20:38;37.80;50.00
26541;DHT22;14206;50.202;10.948;2023-09-12T09:23:09;39.00;48.40
26541;DHT22;14206;50.202;10.948;2023-09-12T09:25:40;40.20;45.90
26541;DHT22;14206;50.202;10.948;2023-09-12T09:28:18;41.00;44.80
26541;DHT22;14206;50.202;10.948;2023-09-12T09:30:50;41.70;42.60
26541;DHT22;14206;50.202;10.948;2023-09-12T09:33:21;42.50;41.40
26541;DHT22;14206;50.202;10.948;2023-09-12T09:35:49;42.70;41.80
26541;DHT22;14206;50.202;10.948;2023-09-12T09:38:19;42.50;41.20
26541;DHT22;14206;50.202;10.948;2023-09-12T09:40:48;41.80;41.90
26541;DHT22;14206;50.202;10.948;2023-09-12T09:43:22;41.10;43.70
26541;DHT22;14206;50.202;10.948;2023-09-12T09:45:49;41.30;43.50
26541;DHT22;14206;50.202;10.948;2023-09-12T09:48:24;41.30;43.80
26541;DHT22;14206;50.202;10.948;2023-09-12T09:51:03;41.30;42.40
26541;DHT22;14206;50.202;10.948;2023-09-12T09:53:30;41.00;43.10
26541;DHT22;14206;50.202;10.948;2023-09-12T09:56:10;40.40;43.70
26541;DHT22;14206;50.202;10.948;2023-09-12T09:58:51;40.10;43.80
26541;DHT22;14206;50.202;10.948;2023-09-12T10:01:20;40.10;44.30
26541;DHT22;14206;50.202;10.948;2023-09-12T10:03:51;40.10;45.10
26541;DHT22;14206;50.202;10.948;2023-09-12T10:06:20;41.00;44.00
26541;DHT22;14206;50.202;10.948;2023-09-12T10:08:51;41.80;43.70
26541;DHT22;14206;50.202;10.948;2023-09-12T10:11:22;42.70;42.40
26541;DHT22;14206;50.202;10.948;2023-09-12T10:13:53;43.50;40.90
26541;DHT22;14206;50.202;10.948;2023-09-12T10:16:25;43.60;39.00
26541;DHT22;14206;50.202;10.948;2023-09-12T10:21:30;44.10;38.50
26541;DHT22;14206;50.202;10.948;2023-09-12T10:24:03;43.70;38.70
26541;DHT22;14206;50.202;10.948;2023-09-12T10:26:31;42.80;39.50
26541;DHT22;14206;50.202;10.948;2023-09-12T10:28:59;43.10;40.10
26541;DHT22;14206;50.202;10.948;2023-09-12T10:31:27;43.60;39.40
26541;DHT22;14206;50.202;10.948;2023-09-12T10:33:55;44.20;38.60
26541;DHT22;14206;50.202;10.948;2023-09-12T10:36:25;44.80;39.00
26541;DHT22;14206;50.202;10.948;2023-09-12T10:38:53;45.30;38.50
26541;DHT22;14206;50.202;10.948;2023-09-12T10:41:24;45.50;38.10
26541;DHT22;14206;50.202;10.948;2023-09-12T10:43:52;45.60;38.00
26541;DHT22;14206;50.202;10.948;2023-09-12T10:46:19;45.60;37.30
26541;DHT22;14206;50.202;10.948;2023-09-12T10:48:48;45.40;37.60
26541;DHT22;14206;50.202;10.948;2023-09-12T10:51:15;45.40;37.40
26541;DHT22;14206;50.202;10.948;2023-09-12T10:53:47;45.60;36.90
26541;DHT22;14206;50.202;10.948;2023-09-12T10:56:18;45.80;37.50
26541;DHT22;14206;50.202;10.948;2023-09-12T11:01:32;46.20;36.00
26541;DHT22;14206;50.202;10.948;2023-09-12T11:06:50;46.00;35.60
26541;DHT22;14206;50.202;10.948;2023-09-12T11:09:24;46.10;36.40
26541;DHT22;14206;50.202;10.948;2023-09-12T11:11:56;46.20;36.80
26541;DHT22;14206;50.202;10.948;2023-09-12T11:14:23;46.30;36.00
26541;DHT22;14206;50.202;10.948;2023-09-12T11:19:51;46.20;35.20
26541;DHT22;14206;50.202;10.948;2023-09-12T11:22:31;46.10;34.90
26541;DHT22;14206;50.202;10.948;2023-09-12T11:25:02;45.90;35.40
26541;DHT22;14206;50.202;10.948;2023-09-12T11:30:12;45.80;35.00
26541;DHT22;14206;50.202;10.948;2023-09-12T11:32:39;45.60;36.50
26541;DHT22;14206;50.202;10.948;2023-09-12T11:35:07;45.50;35.60
26541;DHT22;14206;50.202;10.948;2023-09-12T11:37:35;45.40;34.80
26541;DHT22;14206;50.202;10.948;2023-09-12T11:42:41;44.90;35.70
26541;DHT22;14206;50.202;10.948;2023-09-12T11:45:12;45.00;36.50
26541;DHT22;14206;50.202;10.948;2023-09-12T11:47:43;45.00;35.10
26541;DHT22;14206;50.202;10.948;2023-09-12T11:50:35;44.40;34.90
26541;DHT22;14206;50.202;10.948;2023-09-12T11:53:11;44.10;35.00
26541;DHT22;14206;50.202;10.948;2023-09-12T11:55:47;44.20;36.10
26541;DHT22;14206;50.202;10.948;2023-09-12T11:58:15;44.40;35.10
26541;DHT22;14206;50.202;10.948;2023-09-12T12:00:48;44.50;34.60
26541;DHT22;14206;50.202;10.948;2023-09-12T12:03:16;44.40;34.10
26541;DHT22;14206;50.202;10.948;2023-09-12T12:05:43;44.40;33.00
26541;DHT22;14206;50.202;10.948;2023-09-12T12:08:11;44.70;34.70
26541;DHT22;14206;50.202;10.948;2023-09-12T12:10:56;44.80;33.60
26541;DHT22;14206;50.202;10.948;2023-09-12T12:13:25;44.60;35.20
26541;DHT22;14206;50.202;10.948;2023-09-12T12:15:54;44.40;35.90
26541;DHT22;14206;50.202;10.948;2023-09-12T12:18:21;44.30;36.50
26541;DHT22;14206;50.202;10.948;2023-09-12T12:20:48;44.30;37.50
26541;DHT22;14206;50.202;10.948;2023-09-12T12:23:15;44.20;37.50
26541;DHT22;14206;50.202;10.948;2023-09-12T12:25:42;44.00;37.90
26541;DHT22;14206;50.202;10.948;2023-09-12T12:28:09;43.90;37.80
26541;DHT22;14206;50.202;10.948;2023-09-12T12:30:36;43.90;37.10
26541;DHT22;14206;50.202;10.948;2023-09-12T12:33:08;44.00;38.40
26541;DHT22;14206;50.202;10.948;2023-09-12T12:36:02;44.00;36.90
26541;DHT22;14206;50.202;10.948;2023-09-12T12:38:34;43.60;36.80
26541;DHT22;14206;50.202;10.948;2023-09-12T12:41:23;42.90;37.90
26541;DHT22;14206;50.202;10.948;2023-09-12T12:43:51;42.10;38.10
26541;DHT22;14206;50.202;10.948;2023-09-12T12:46:19;41.10;38.80
26541;DHT22;14206;50.202;10.948;2023-09-12T12:48:48;40.20;40.40
26541;DHT22;14206;50.202;10.948;2023-09-12T12:51:21;39.50;41.10
26541;DHT22;14206;50.202;10.948;2023-09-12T12:53:53;38.90;42.10
26541;DHT22;14206;50.202;10.948;2023-09-12T12:56:23;38.30;43.60
26541;DHT22;14206;50.202;10.948;2023-09-12T12:58:52;37.60;44.60
26541;DHT22;14206;50.202;10.948;2023-09-12T13:01:21;37.00;46.10
26541;DHT22;14206;50.202;10.948;2023-09-12T13:03:48;36.50;45.20
26541;DHT22;14206;50.202;10.948;2023-09-12T13:06:17;36.00;46.80
26541;DHT22;14206;50.202;10.948;2023-09-12T13:08:46;35.60;47.10
26541;DHT22;14206;50.202;10.948;2023-09-12T13:11:14;35.40;47.30
26541;DHT22;14206;50.202;10.948;2023-09-12T13:13:44;35.00;46.40
26541;DHT22;14206;50.202;10.948;2023-09-12T13:16:13;34.90;47.50
26541;DHT22;14206;50.202;10.948;2023-09-12T13:18:41;34.70;48.80
26541;DHT22;14206;50.202;10.948;2023-09-12T13:21:08;34.40;48.70
26541;DHT22;14206;50.202;10.948;2023-09-12T13:23:38;34.00;48.60
26541;DHT22;14206;50.202;10.948;2023-09-12T13:26:08;33.70;49.10
26541;DHT22;14206;50.202;10.948;2023-09-12T13:28:35;33.50;47.70
26541;DHT22;14206;50.202;10.948;2023-09-12T13:31:02;33.30;49.20
26541;DHT22;14206;50.202;10.948;2023-09-12T13:33:30;33.20;49.90
26541;DHT22;14206;50.202;10.948;2023-09-12T13:35:57;33.10;50.80
26541;DHT22;14206;50.202;10.948;2023-09-12T13:38:24;33.00;50.30
26541;DHT22;14206;50.202;10.948;2023-09-12T13:40:51;33.00;50.70
26541;DHT22;14206;50.202;10.948;2023-09-12T13:43:18;32.80;49.90
26541;DHT22;14206;50.202;10.948;2023-09-12T13:45:45;32.70;50.90
26541;DHT22;14206;50.202;10.948;2023-09-12T13:48:13;32.50;50.60
26541;DHT22;14206;50.202;10.948;2023-09-12T13:50:40;32.30;49.70
26541;DHT22;14206;50.202;10.948;2023-09-12T13:53:09;32.20;49.60
26541;DHT22;14206;50.202;10.948;2023-09-12T13:55:36;32.10;48.10
26541;DHT22;14206;50.202;10.948;2023-09-12T13:58:24;32.00;48.60
26541;DHT22;14206;50.202;10.948;2023-09-12T14:00:56;31.90;48.90
26541;DHT22;14206;50.202;10.948;2023-09-12T14:03:23;31.90;47.50
26541;DHT22;14206;50.202;10.948;2023-09-12T14:05:50;31.90;47.70
26541;DHT22;14206;50.202;10.948;2023-09-12T14:08:18;31.80;47.50
26541;DHT22;14206;50.202;10.948;2023-09-12T14:10:47;31.70;47.60
26541;DHT22;14206;50.202;10.948;2023-09-12T14:13:14;31.60;48.20
26541;DHT22;14206;50.202;10.948;2023-09-12T14:15:48;31.50;48.90
26541;DHT22;14206;50.202;10.948;2023-09-12T14:18:17;31.40;48.60
26541;DHT22;14206;50.202;10.948;2023-09-12T14:20:46;31.30;49.80
26541;DHT22;14206;50.202;10.948;2023-09-12T14:23:14;31.20;49.80
26541;DHT22;14206;50.202;10.948;2023-09-12T14:25:42;31.10;50.30
26541;DHT22;14206;50.202;10.948;2023-09-12T14:28:09;31.00;50.60
26541;DHT22;14206;50.202;10.948;2023-09-12T14:30:37;31.00;50.10
26541;DHT22;14206;50.202;10.948;2023-09-12T14:33:05;31.00;49.20
26541;DHT22;14206;50.202;10.948;2023-09-12T14:35:32;31.00;49.10
26541;DHT22;14206;50.202;10.948;2023-09-12T14:37:59;31.00;49.40
26541;DHT22;14206;50.202;10.948;2023-09-12T14:40:27;30.90;52.20
26541;DHT22;14206;50.202;10.948;2023-09-12T14:42:54;30.90;52.50
26541;DHT22;14206;50.202;10.948;2023-09-12T14:45:22;30.90;53.10
26541;DHT22;14206;50.202;10.948;2023-09-12T14:47:52;30.80;52.70
26541;DHT22;14206;50.202;10.948;2023-09-12T14:50:22;30.70;53.40
26541;DHT22;14206;50.202;10.948;2023-09-12T14:53:08;30.60;53.30
26541;DHT22;14206;50.202;10.948;2023-09-12T14:55:35;30.50;53.40
26541;DHT22;14206;50.202;10.948;2023-09-12T14:58:03;30.50;53.20
26541;DHT22;14206;50.202;10.948;2023-09-12T15:00:30;30.40;51.50
26541;DHT22;14206;50.202;10.948;2023-09-12T15:02:57;30.30;52.80
26541;DHT22;14206;50.202;10.948;2023-09-12T15:05:24;30.30;53.90
26541;DHT22;14206;50.202;10.948;2023-09-12T15:07:51;30.20;55.00
26541;DHT22;14206;50.202;10.948;2023-09-12T15:10:18;30.20;55.40
26541;DHT22;14206;50.202;10.948;2023-09-12T15:12:46;30.10;55.40
26541;DHT22;14206;50.202;10.948;2023-09-12T15:15:13;30.00;56.10
26541;DHT22;14206;50.202;10.948;2023-09-12T15:17:44;30.00;56.60
26541;DHT22;14206;50.202;10.948;2023-09-12T15:20:11;29.90;56.10
26541;DHT22;14206;50.202;10.948;2023-09-12T15:22:38;29.80;57.50
26541;DHT22;14206;50.202;10.948;2023-09-12T15:25:06;29.80;57.70
26541;DHT22;14206;50.202;10.948;2023-09-12T15:27:33;29.70;58.00
26541;DHT22;14206;50.202;10.948;2023-09-12T15:30:04;29.60;58.10
26541;DHT22;14206;50.202;10.948;2023-09-12T15:32:32;29.60;58.60
26541;DHT22;14206;50.202;10.948;2023-09-12T15:35:00;29.40;57.60
26541;DHT22;14206;50.202;10.948;2023-09-12T15:37:30;29.30;58.70
26541;DHT22;14206;50.202;10.948;2023-09-12T15:39:57;29.30;59.70
26541;DHT22;14206;50.202;10.948;2023-09-12T15:42:25;29.20;59.90
26541;DHT22;14206;50.202;10.948;2023-09-12T15:44:54;29.20;59.60
26541;DHT22;14206;50.202;10.948;2023-09-12T15:47:28;29.10;59.60